sensor_id;sensor_type;location;lat;lon;timestamp;P1;durP1;ratioP1;P2;durP2;ratioP2
47021;SDS011;32779;52.264;6.154;2022-12-18T00:01:42;115.20;;;43.78;;
47021;SDS011;32779;52.264;6.154;2022-12-18T00:04:14;115.07;;;42.30;;
47021;SDS011;32779;52.264;6.154;2022-12-18T00:06:45;104.65;;;39.70;;
47021;SDS011;32779;52.264;6.154;2022-12-18T00:09:11;99.57;;;40.55;;
47021;SDS011;32779;52.264;6.154;2022-12-18T00:11:40;105.50;;;40.85;;
47021;SDS011;32779;52.264;6.154;2022-12-18T00:16:31;95.10;;;37.67;;
47021;SDS011;32779;52.264;6.154;2022-12-18T00:19:00;102.43;;;40.75;;
47021;SDS011;32779;52.264;6.154;2022-12-18T00:21:27;91.85;;;38.50;;
47021;SDS011;32779;52.264;6.154;2022-12-18T00:23:55;106.88;;;41.80;;
47021;SDS011;32779;52.264;6.154;2022-12-18T00:26:22;96.00;;;37.92;;
47021;SDS011;32779;52.264;6.154;2022-12-18T00:28:51;93.93;;;37.95;;
47021;SDS011;32779;52.264;6.154;2022-12-18T00:31:19;91.00;;;39.65;;
47021;SDS011;32779;52.264;6.154;2022-12-18T00:33:47;99.75;;;40.97;;
47021;SDS011;32779;52.264;6.154;2022-12-18T00:36:14;94.53;;;39.08;;
47021;SDS011;32779;52.264;6.154;2022-12-18T00:38:45;98.05;;;39.03;;
47021;SDS011;32779;52.264;6.154;2022-12-18T00:41:12;97.80;;;39.25;;
47021;SDS011;32779;52.264;6.154;2022-12-18T00:43:59;89.55;;;37.60;;
47021;SDS011;32779;52.264;6.154;2022-12-18T00:46:25;94.50;;;36.53;;
47021;SDS011;32779;52.264;6.154;2022-12-18T00:48:51;98.65;;;37.50;;
47021;SDS011;32779;52.264;6.154;2022-12-18T00:51:20;93.45;;;37.13;;
47021;SDS011;32779;52.264;6.154;2022-12-18T00:53:46;93.50;;;36.53;;
47021;SDS011;32779;52.264;6.154;2022-12-18T00:56:11;88.75;;;34.92;;
47021;SDS011;32779;52.264;6.154;2022-12-18T00:58:37;84.97;;;34.25;;
47021;SDS011;32779;52.264;6.154;2022-12-18T01:01:04;88.53;;;34.95;;
47021;SDS011;32779;52.264;6.154;2022-12-18T01:03:30;90.90;;;36.72;;
47021;SDS011;32779;52.264;6.154;2022-12-18T01:05:56;90.50;;;37.83;;
47021;SDS011;32779;52.264;6.154;2022-12-18T01:08:22;82.07;;;34.05;;
47021;SDS011;32779;52.264;6.154;2022-12-18T01:10:51;87.72;;;34.40;;
47021;SDS011;32779;52.264;6.154;2022-12-18T01:13:16;93.00;;;35.85;;
47021;SDS011;32779;52.264;6.154;2022-12-18T01:15:49;87.18;;;34.20;;
47021;SDS011;32779;52.264;6.154;2022-12-18T01:18:15;84.63;;;34.10;;
47021;SDS011;32779;52.264;6.154;2022-12-18T01:20:40;85.88;;;34.80;;
47021;SDS011;32779;52.264;6.154;2022-12-18T01:23:06;89.65;;;34.25;;
47021;SDS011;32779;52.264;6.154;2022-12-18T01:25:32;79.28;;;32.60;;
47021;SDS011;32779;52.264;6.154;2022-12-18T01:27:58;87.30;;;34.83;;
47021;SDS011;32779;52.264;6.154;2022-12-18T01:30:23;78.13;;;33.22;;
47021;SDS011;32779;52.264;6.154;2022-12-18T01:32:50;79.43;;;31.60;;
47021;SDS011;32779;52.264;6.154;2022-12-18T01:35:16;82.30;;;34.35;;
47021;SDS011;32779;52.264;6.154;2022-12-18T01:37:41;75.68;;;31.33;;
47021;SDS011;32779;52.264;6.154;2022-12-18T01:40:07;78.30;;;31.75;;
47021;SDS011;32779;52.264;6.154;2022-12-18T01:42:36;79.03;;;32.70;;
47021;SDS011;32779;52.264;6.154;2022-12-18T01:47:44;70.43;;;29.88;;
47021;SDS011;32779;52.264;6.154;2022-12-18T01:50:15;76.10;;;31.05;;
47021;SDS011;32779;52.264;6.154;2022-12-18T01:52:41;72.22;;;30.48;;
47021;SDS011;32779;52.264;6.154;2022-12-18T01:55:10;74.47;;;30.40;;
47021;SDS011;32779;52.264;6.154;2022-12-18T01:57:37;70.95;;;29.73;;
47021;SDS011;32779;52.264;6.154;2022-12-18T02:00:06;72.65;;;29.33;;
47021;SDS011;32779;52.264;6.154;2022-12-18T02:02:40;73.20;;;29.10;;
47021;SDS011;32779;52.264;6.154;2022-12-18T02:05:07;70.32;;;29.85;;
47021;SDS011;32779;52.264;6.154;2022-12-18T02:07:37;77.28;;;30.83;;
47021;SDS011;32779;52.264;6.154;2022-12-18T02:10:20;66.75;;;28.92;;
47021;SDS011;32779;52.264;6.154;2022-12-18T02:13:32;70.22;;;29.75;;
47021;SDS011;32779;52.264;6.154;2022-12-18T02:16:06;74.78;;;29.83;;
47021;SDS011;32779;52.264;6.154;2022-12-18T02:18:50;77.55;;;30.00;;
47021;SDS011;32779;52.264;6.154;2022-12-18T02:24:17;71.18;;;29.20;;
47021;SDS011;32779;52.264;6.154;2022-12-18T02:26:59;79.03;;;29.73;;
47021;SDS011;32779;52.264;6.154;2022-12-18T02:29:36;72.63;;;28.35;;
47021;SDS011;32779;52.264;6.154;2022-12-18T02:32:35;68.20;;;29.25;;
47021;SDS011;32779;52.264;6.154;2022-12-18T02:35:03;75.45;;;28.55;;
47021;SDS011;32779;52.264;6.154;2022-12-18T02:37:31;76.63;;;29.25;;
47021;SDS011;32779;52.264;6.154;2022-12-18T02:39:58;73.30;;;28.73;;
47021;SDS011;32779;52.264;6.154;2022-12-18T02:42:25;70.90;;;28.27;;
47021;SDS011;32779;52.264;6.154;2022-12-18T02:44:53;65.18;;;28.90;;
47021;SDS011;32779;52.264;6.154;2022-12-18T02:47:20;70.68;;;29.05;;
47021;SDS011;32779;52.264;6.154;2022-12-18T02:50:05;64.68;;;26.98;;
47021;SDS011;32779;52.264;6.154;2022-12-18T02:52:39;72.00;;;26.67;;
47021;SDS011;32779;52.264;6.154;2022-12-18T02:55:19;69.20;;;26.88;;
47021;SDS011;32779;52.264;6.154;2022-12-18T03:01:09;66.18;;;27.45;;
47021;SDS011;32779;52.264;6.154;2022-12-18T03:03:59;72.25;;;27.48;;
47021;SDS011;32779;52.264;6.154;2022-12-18T03:06:30;65.70;;;26.35;;
47021;SDS011;32779;52.264;6.154;2022-12-18T03:09:02;68.13;;;27.35;;
47021;SDS011;32779;52.264;6.154;2022-12-18T03:11:35;65.78;;;27.23;;
47021;SDS011;32779;52.264;6.154;2022-12-18T03:14:24;64.18;;;27.08;;
47021;SDS011;32779;52.264;6.154;2022-12-18T03:16:54;68.07;;;28.30;;
47021;SDS011;32779;52.264;6.154;2022-12-18T03:19:27;57.65;;;26.58;;
47021;SDS011;32779;52.264;6.154;2022-12-18T03:21:57;63.45;;;26.52;;
47021;SDS011;32779;52.264;6.154;2022-12-18T03:24:26;67.15;;;25.33;;
47021;SDS011;32779;52.264;6.154;2022-12-18T03:26:57;57.78;;;25.45;;
47021;SDS011;32779;52.264;6.154;2022-12-18T03:34:37;57.05;;;24.10;;
47021;SDS011;32779;52.264;6.154;2022-12-18T03:37:05;53.58;;;25.17;;
47021;SDS011;32779;52.264;6.154;2022-12-18T03:39:33;57.47;;;25.00;;
47021;SDS011;32779;52.264;6.154;2022-12-18T03:42:10;54.53;;;24.77;;
47021;SDS011;32779;52.264;6.154;2022-12-18T03:50:47;56.92;;;23.77;;
47021;SDS011;32779;52.264;6.154;2022-12-18T03:56:23;48.63;;;22.70;;
47021;SDS011;32779;52.264;6.154;2022-12-18T03:58:55;50.92;;;22.75;;
47021;SDS011;32779;52.264;6.154;2022-12-18T04:01:25;45.80;;;21.23;;
47021;SDS011;32779;52.264;6.154;2022-12-18T04:03:56;50.75;;;21.90;;
47021;SDS011;32779;52.264;6.154;2022-12-18T04:06:25;49.58;;;21.70;;
47021;SDS011;32779;52.264;6.154;2022-12-18T04:11:17;45.60;;;19.10;;
47021;SDS011;32779;52.264;6.154;2022-12-18T04:13:46;43.45;;;22.40;;
47021;SDS011;32779;52.264;6.154;2022-12-18T04:16:11;49.53;;;21.75;;
47021;SDS011;32779;52.264;6.154;2022-12-18T04:18:37;46.35;;;21.40;;
47021;SDS011;32779;52.264;6.154;2022-12-18T04:21:03;51.60;;;22.73;;
47021;SDS011;32779;52.264;6.154;2022-12-18T04:23:29;49.92;;;20.83;;
47021;SDS011;32779;52.264;6.154;2022-12-18T04:25:54;43.17;;;20.13;;
47021;SDS011;32779;52.264;6.154;2022-12-18T04:28:20;50.35;;;23.90;;
47021;SDS011;32779;52.264;6.154;2022-12-18T04:30:46;65.13;;;28.05;;
47021;SDS011;32779;52.264;6.154;2022-12-18T04:33:12;60.25;;;27.15;;
47021;SDS011;32779;52.264;6.154;2022-12-18T04:35:39;54.08;;;26.95;;
47021;SDS011;32779;52.264;6.154;2022-12-18T04:38:06;48.85;;;24.40;;
47021;SDS011;32779;52.264;6.154;2022-12-18T04:40:33;50.75;;;23.75;;
47021;SDS011;32779;52.264;6.154;2022-12-18T04:43:00;49.08;;;21.90;;
47021;SDS011;32779;52.264;6.154;2022-12-18T04:45:26;40.38;;;20.48;;
47021;SDS011;32779;52.264;6.154;2022-12-18T04:47:52;43.20;;;21.25;;
47021;SDS011;32779;52.264;6.154;2022-12-18T04:52:43;47.83;;;18.83;;
47021;SDS011;32779;52.264;6.154;2022-12-18T04:55:09;37.55;;;18.70;;
47021;SDS011;32779;52.264;6.154;2022-12-18T04:57:35;33.47;;;17.48;;
47021;SDS011;32779;52.264;6.154;2022-12-18T05:00:01;38.90;;;18.40;;
47021;SDS011;32779;52.264;6.154;2022-12-18T05:02:27;37.38;;;17.20;;
47021;SDS011;32779;52.264;6.154;2022-12-18T05:04:53;42.45;;;18.85;;
47021;SDS011;32779;52.264;6.154;2022-12-18T05:07:18;35.97;;;17.65;;
47021;SDS011;32779;52.264;6.154;2022-12-18T05:09:44;41.13;;;18.70;;
47021;SDS011;32779;52.264;6.154;2022-12-18T05:12:10;40.20;;;17.58;;
47021;SDS011;32779;52.264;6.154;2022-12-18T05:14:37;46.03;;;18.13;;
47021;SDS011;32779;52.264;6.154;2022-12-18T05:17:02;38.63;;;17.45;;
47021;SDS011;32779;52.264;6.154;2022-12-18T05:19:28;38.83;;;17.95;;
47021;SDS011;32779;52.264;6.154;2022-12-18T05:21:53;39.10;;;17.73;;
47021;SDS011;32779;52.264;6.154;2022-12-18T05:24:19;37.17;;;17.30;;
47021;SDS011;32779;52.264;6.154;2022-12-18T05:26:45;39.65;;;17.70;;
47021;SDS011;32779;52.264;6.154;2022-12-18T05:29:14;40.80;;;17.38;;
47021;SDS011;32779;52.264;6.154;2022-12-18T05:31:40;30.50;;;15.90;;
47021;SDS011;32779;52.264;6.154;2022-12-18T05:34:06;36.67;;;17.33;;
47021;SDS011;32779;52.264;6.154;2022-12-18T05:36:34;43.67;;;16.77;;
47021;SDS011;32779;52.264;6.154;2022-12-18T05:39:00;38.95;;;17.40;;
47021;SDS011;32779;52.264;6.154;2022-12-18T05:41:32;31.88;;;15.88;;
47021;SDS011;32779;52.264;6.154;2022-12-18T05:43:58;37.63;;;17.10;;
47021;SDS011;32779;52.264;6.154;2022-12-18T05:46:24;37.53;;;17.42;;
47021;SDS011;32779;52.264;6.154;2022-12-18T05:48:50;33.28;;;16.42;;
47021;SDS011;32779;52.264;6.154;2022-12-18T05:51:17;31.75;;;16.38;;
47021;SDS011;32779;52.264;6.154;2022-12-18T05:53:46;31.75;;;16.27;;
47021;SDS011;32779;52.264;6.154;2022-12-18T05:56:16;41.90;;;17.17;;
47021;SDS011;32779;52.264;6.154;2022-12-18T05:58:44;35.08;;;16.58;;
47021;SDS011;32779;52.264;6.154;2022-12-18T06:01:11;36.72;;;16.10;;
47021;SDS011;32779;52.264;6.154;2022-12-18T06:03:40;35.75;;;16.58;;
47021;SDS011;32779;52.264;6.154;2022-12-18T06:06:17;36.70;;;17.25;;
47021;SDS011;32779;52.264;6.154;2022-12-18T06:08:44;38.13;;;17.88;;
47021;SDS011;32779;52.264;6.154;2022-12-18T06:11:10;36.05;;;17.38;;
47021;SDS011;32779;52.264;6.154;2022-12-18T06:13:36;36.83;;;17.13;;
47021;SDS011;32779;52.264;6.154;2022-12-18T06:16:03;42.53;;;17.45;;
47021;SDS011;32779;52.264;6.154;2022-12-18T06:18:30;34.60;;;17.92;;
47021;SDS011;32779;52.264;6.154;2022-12-18T06:23:23;26.55;;;13.63;;
47021;SDS011;32779;52.264;6.154;2022-12-18T06:25:49;33.42;;;16.55;;
47021;SDS011;32779;52.264;6.154;2022-12-18T06:28:15;36.78;;;15.85;;
47021;SDS011;32779;52.264;6.154;2022-12-18T06:30:44;32.67;;;17.17;;
47021;SDS011;32779;52.264;6.154;2022-12-18T06:33:13;38.28;;;16.80;;
47021;SDS011;32779;52.264;6.154;2022-12-18T06:35:43;38.55;;;17.25;;
47021;SDS011;32779;52.264;6.154;2022-12-18T06:38:09;41.85;;;17.85;;
47021;SDS011;32779;52.264;6.154;2022-12-18T06:40:36;35.45;;;16.98;;
47021;SDS011;32779;52.264;6.154;2022-12-18T06:43:04;34.50;;;17.08;;
47021;SDS011;32779;52.264;6.154;2022-12-18T06:45:29;37.92;;;17.65;;
47021;SDS011;32779;52.264;6.154;2022-12-18T06:47:55;31.10;;;16.83;;
47021;SDS011;32779;52.264;6.154;2022-12-18T06:50:21;42.25;;;18.48;;
47021;SDS011;32779;52.264;6.154;2022-12-18T06:52:46;35.72;;;17.35;;
47021;SDS011;32779;52.264;6.154;2022-12-18T06:55:12;42.72;;;17.80;;
47021;SDS011;32779;52.264;6.154;2022-12-18T06:57:38;42.13;;;18.65;;
47021;SDS011;32779;52.264;6.154;2022-12-18T07:00:05;40.80;;;17.80;;
47021;SDS011;32779;52.264;6.154;2022-12-18T07:02:31;35.92;;;17.13;;
47021;SDS011;32779;52.264;6.154;2022-12-18T07:05:00;43.58;;;20.38;;
47021;SDS011;32779;52.264;6.154;2022-12-18T07:09:52;44.67;;;19.98;;
47021;SDS011;32779;52.264;6.154;2022-12-18T07:12:18;36.30;;;17.42;;
47021;SDS011;32779;52.264;6.154;2022-12-18T07:14:46;40.20;;;18.27;;
47021;SDS011;32779;52.264;6.154;2022-12-18T07:17:12;41.13;;;18.02;;
47021;SDS011;32779;52.264;6.154;2022-12-18T07:19:44;41.60;;;19.10;;
47021;SDS011;32779;52.264;6.154;2022-12-18T07:22:13;43.33;;;18.88;;
47021;SDS011;32779;52.264;6.154;2022-12-18T07:24:38;43.22;;;18.65;;
47021;SDS011;32779;52.264;6.154;2022-12-18T07:27:04;40.95;;;18.10;;
47021;SDS011;32779;52.264;6.154;2022-12-18T07:29:34;43.67;;;19.98;;
47021;SDS011;32779;52.264;6.154;2022-12-18T07:32:02;45.13;;;18.10;;
47021;SDS011;32779;52.264;6.154;2022-12-18T07:34:28;38.38;;;18.70;;
47021;SDS011;32779;52.264;6.154;2022-12-18T07:36:54;42.55;;;18.70;;
47021;SDS011;32779;52.264;6.154;2022-12-18T07:39:20;42.60;;;18.27;;
47021;SDS011;32779;52.264;6.154;2022-12-18T07:41:45;37.28;;;18.50;;
47021;SDS011;32779;52.264;6.154;2022-12-18T07:44:32;38.38;;;17.23;;
47021;SDS011;32779;52.264;6.154;2022-12-18T07:46:57;41.78;;;19.67;;
47021;SDS011;32779;52.264;6.154;2022-12-18T07:49:23;41.38;;;19.05;;
47021;SDS011;32779;52.264;6.154;2022-12-18T07:51:49;47.28;;;19.50;;
47021;SDS011;32779;52.264;6.154;2022-12-18T07:54:14;43.92;;;20.30;;
47021;SDS011;32779;52.264;6.154;2022-12-18T07:56:40;42.42;;;19.55;;
47021;SDS011;32779;52.264;6.154;2022-12-18T07:59:06;40.80;;;18.95;;
47021;SDS011;32779;52.264;6.154;2022-12-18T08:01:32;37.38;;;18.00;;
47021;SDS011;32779;52.264;6.154;2022-12-18T08:03:59;37.63;;;19.38;;
47021;SDS011;32779;52.264;6.154;2022-12-18T08:06:25;37.33;;;17.75;;
47021;SDS011;32779;52.264;6.154;2022-12-18T08:08:54;45.33;;;18.75;;
47021;SDS011;32779;52.264;6.154;2022-12-18T08:11:21;38.92;;;18.35;;
47021;SDS011;32779;52.264;6.154;2022-12-18T08:13:52;41.40;;;19.00;;
47021;SDS011;32779;52.264;6.154;2022-12-18T08:16:18;34.58;;;18.02;;
47021;SDS011;32779;52.264;6.154;2022-12-18T08:18:45;35.78;;;17.33;;
47021;SDS011;32779;52.264;6.154;2022-12-18T08:21:14;41.38;;;17.67;;
47021;SDS011;32779;52.264;6.154;2022-12-18T08:23:45;38.88;;;18.48;;
47021;SDS011;32779;52.264;6.154;2022-12-18T08:26:11;38.05;;;17.13;;
47021;SDS011;32779;52.264;6.154;2022-12-18T08:28:37;38.22;;;17.58;;
47021;SDS011;32779;52.264;6.154;2022-12-18T08:33:29;37.85;;;17.08;;
47021;SDS011;32779;52.264;6.154;2022-12-18T08:35:55;34.30;;;16.88;;
47021;SDS011;32779;52.264;6.154;2022-12-18T08:38:24;36.95;;;16.10;;
47021;SDS011;32779;52.264;6.154;2022-12-18T08:41:03;39.10;;;17.05;;
47021;SDS011;32779;52.264;6.154;2022-12-18T08:46:14;35.03;;;16.77;;
47021;SDS011;32779;52.264;6.154;2022-12-18T08:48:40;38.30;;;17.42;;
47021;SDS011;32779;52.264;6.154;2022-12-18T08:51:06;32.10;;;17.27;;
47021;SDS011;32779;52.264;6.154;2022-12-18T08:53:32;34.30;;;17.25;;
47021;SDS011;32779;52.264;6.154;2022-12-18T08:55:57;33.70;;;16.50;;
47021;SDS011;32779;52.264;6.154;2022-12-18T08:58:23;33.58;;;16.27;;
47021;SDS011;32779;52.264;6.154;2022-12-18T09:00:52;32.00;;;17.02;;
47021;SDS011;32779;52.264;6.154;2022-12-18T09:03:18;29.85;;;15.48;;
47021;SDS011;32779;52.264;6.154;2022-12-18T09:05:47;26.40;;;14.50;;
47021;SDS011;32779;52.264;6.154;2022-12-18T09:08:16;25.98;;;13.98;;
47021;SDS011;32779;52.264;6.154;2022-12-18T09:10:42;29.20;;;14.55;;
47021;SDS011;32779;52.264;6.154;2022-12-18T09:13:13;26.02;;;14.75;;
47021;SDS011;32779;52.264;6.154;2022-12-18T09:15:46;28.10;;;14.43;;
47021;SDS011;32779;52.264;6.154;2022-12-18T09:18:14;28.80;;;14.82;;
47021;SDS011;32779;52.264;6.154;2022-12-18T09:20:42;25.25;;;14.05;;
47021;SDS011;32779;52.264;6.154;2022-12-18T09:23:08;25.42;;;14.15;;
47021;SDS011;32779;52.264;6.154;2022-12-18T09:28:01;28.52;;;14.85;;
47021;SDS011;32779;52.264;6.154;2022-12-18T09:30:28;30.38;;;15.73;;
47021;SDS011;32779;52.264;6.154;2022-12-18T09:32:54;29.08;;;14.93;;
47021;SDS011;32779;52.264;6.154;2022-12-18T09:35:20;31.30;;;17.08;;
47021;SDS011;32779;52.264;6.154;2022-12-18T09:37:46;34.00;;;15.80;;
47021;SDS011;32779;52.264;6.154;2022-12-18T09:40:22;31.13;;;16.02;;
47021;SDS011;32779;52.264;6.154;2022-12-18T09:42:57;35.13;;;18.05;;
47021;SDS011;32779;52.264;6.154;2022-12-18T09:45:28;31.20;;;15.80;;
47021;SDS011;32779;52.264;6.154;2022-12-18T09:48:02;29.45;;;14.52;;
47021;SDS011;32779;52.264;6.154;2022-12-18T09:50:31;23.60;;;13.65;;
47021;SDS011;32779;52.264;6.154;2022-12-18T09:53:02;26.20;;;15.13;;
47021;SDS011;32779;52.264;6.154;2022-12-18T09:55:33;26.55;;;14.23;;
47021;SDS011;32779;52.264;6.154;2022-12-18T09:58:04;25.38;;;13.50;;
47021;SDS011;32779;52.264;6.154;2022-12-18T10:00:52;27.10;;;13.90;;
47021;SDS011;32779;52.264;6.154;2022-12-18T10:03:19;26.98;;;13.88;;
47021;SDS011;32779;52.264;6.154;2022-12-18T10:11:16;23.00;;;12.82;;
47021;SDS011;32779;52.264;6.154;2022-12-18T10:14:09;21.85;;;11.80;;
47021;SDS011;32779;52.264;6.154;2022-12-18T10:16:43;22.92;;;12.43;;
47021;SDS011;32779;52.264;6.154;2022-12-18T10:27:38;23.17;;;11.10;;
47021;SDS011;32779;52.264;6.154;2022-12-18T10:30:11;27.67;;;13.80;;
47021;SDS011;32779;52.264;6.154;2022-12-18T10:32:42;17.33;;;10.00;;
47021;SDS011;32779;52.264;6.154;2022-12-18T10:35:11;18.48;;;10.85;;
47021;SDS011;32779;52.264;6.154;2022-12-18T10:40:29;13.57;;;9.25;;
47021;SDS011;32779;52.264;6.154;2022-12-18T10:43:12;18.08;;;9.27;;
47021;SDS011;32779;52.264;6.154;2022-12-18T10:45:39;21.08;;;10.15;;
47021;SDS011;32779;52.264;6.154;2022-12-18T10:48:22;14.65;;;8.98;;
47021;SDS011;32779;52.264;6.154;2022-12-18T10:50:49;17.77;;;9.95;;
47021;SDS011;32779;52.264;6.154;2022-12-18T10:53:26;14.73;;;9.40;;
47021;SDS011;32779;52.264;6.154;2022-12-18T10:55:54;17.08;;;10.05;;
47021;SDS011;32779;52.264;6.154;2022-12-18T10:58:33;18.83;;;10.60;;
47021;SDS011;32779;52.264;6.154;2022-12-18T11:01:15;16.27;;;9.90;;
47021;SDS011;32779;52.264;6.154;2022-12-18T11:04:01;18.02;;;8.57;;
47021;SDS011;32779;52.264;6.154;2022-12-18T11:06:32;17.38;;;9.32;;
47021;SDS011;32779;52.264;6.154;2022-12-18T11:09:05;18.85;;;9.38;;
47021;SDS011;32779;52.264;6.154;2022-12-18T11:11:48;18.50;;;9.63;;
47021;SDS011;32779;52.264;6.154;2022-12-18T11:14:18;36.65;;;14.30;;
47021;SDS011;32779;52.264;6.154;2022-12-18T11:16:55;22.90;;;11.70;;
47021;SDS011;32779;52.264;6.154;2022-12-18T11:19:29;22.77;;;12.13;;
47021;SDS011;32779;52.264;6.154;2022-12-18T11:22:53;18.92;;;10.40;;
47021;SDS011;32779;52.264;6.154;2022-12-18T11:27:23;17.10;;;9.93;;
47021;SDS011;32779;52.264;6.154;2022-12-18T11:30:06;22.42;;;9.82;;
47021;SDS011;32779;52.264;6.154;2022-12-18T11:32:49;19.50;;;10.18;;
47021;SDS011;32779;52.264;6.154;2022-12-18T11:35:42;17.67;;;8.60;;
47021;SDS011;32779;52.264;6.154;2022-12-18T11:43:35;19.02;;;10.48;;
47021;SDS011;32779;52.264;6.154;2022-12-18T11:48:58;23.17;;;9.75;;
47021;SDS011;32779;52.264;6.154;2022-12-18T11:51:36;16.40;;;9.50;;
47021;SDS011;32779;52.264;6.154;2022-12-18T11:54:11;17.67;;;9.35;;
47021;SDS011;32779;52.264;6.154;2022-12-18T11:56:42;21.25;;;9.52;;
47021;SDS011;32779;52.264;6.154;2022-12-18T11:59:57;17.27;;;9.43;;
47021;SDS011;32779;52.264;6.154;2022-12-18T12:02:19;20.08;;;11.23;;
47021;SDS011;32779;52.264;6.154;2022-12-18T12:05:11;24.92;;;10.50;;
47021;SDS011;32779;52.264;6.154;2022-12-18T12:08:10;17.88;;;9.77;;
47021;SDS011;32779;52.264;6.154;2022-12-18T12:16:23;18.17;;;10.05;;
47021;SDS011;32779;52.264;6.154;2022-12-18T12:21:34;17.30;;;8.35;;
47021;SDS011;32779;52.264;6.154;2022-12-18T12:29:45;22.33;;;9.25;;
47021;SDS011;32779;52.264;6.154;2022-12-18T12:35:22;21.92;;;7.43;;
47021;SDS011;32779;52.264;6.154;2022-12-18T12:38:11;17.67;;;9.68;;
47021;SDS011;32779;52.264;6.154;2022-12-18T12:40:49;18.20;;;10.18;;
47021;SDS011;32779;52.264;6.154;2022-12-18T12:43:35;19.13;;;9.77;;
47021;SDS011;32779;52.264;6.154;2022-12-18T12:46:08;23.30;;;12.10;;
47021;SDS011;32779;52.264;6.154;2022-12-18T12:48:49;22.65;;;9.93;;
47021;SDS011;32779;52.264;6.154;2022-12-18T12:51:27;28.70;;;14.20;;
47021;SDS011;32779;52.264;6.154;2022-12-18T12:53:57;15.30;;;9.02;;
47021;SDS011;32779;52.264;6.154;2022-12-18T12:56:27;21.90;;;9.88;;
47021;SDS011;32779;52.264;6.154;2022-12-18T12:59:10;18.67;;;9.32;;
47021;SDS011;32779;52.264;6.154;2022-12-18T13:09:23;16.45;;;8.93;;
47021;SDS011;32779;52.264;6.154;2022-12-18T13:11:49;18.58;;;9.68;;
47021;SDS011;32779;52.264;6.154;2022-12-18T13:14:37;16.63;;;9.55;;
47021;SDS011;32779;52.264;6.154;2022-12-18T13:17:15;32.38;;;10.05;;
47021;SDS011;32779;52.264;6.154;2022-12-18T13:22:21;16.23;;;8.30;;
47021;SDS011;32779;52.264;6.154;2022-12-18T13:24:48;15.82;;;9.05;;
47021;SDS011;32779;52.264;6.154;2022-12-18T13:36:12;14.13;;;7.97;;
47021;SDS011;32779;52.264;6.154;2022-12-18T13:38:41;15.82;;;8.48;;
47021;SDS011;32779;52.264;6.154;2022-12-18T13:43:45;16.38;;;8.07;;
47021;SDS011;32779;52.264;6.154;2022-12-18T13:46:19;14.05;;;8.32;;
47021;SDS011;32779;52.264;6.154;2022-12-18T13:49:54;15.68;;;8.15;;
47021;SDS011;32779;52.264;6.154;2022-12-18T13:52:19;15.23;;;8.68;;
47021;SDS011;32779;52.264;6.154;2022-12-18T13:55:02;17.20;;;8.68;;
47021;SDS011;32779;52.264;6.154;2022-12-18T13:57:33;19.75;;;9.90;;
47021;SDS011;32779;52.264;6.154;2022-12-18T14:02:46;16.65;;;8.50;;
47021;SDS011;32779;52.264;6.154;2022-12-18T14:05:22;19.02;;;9.68;;
47021;SDS011;32779;52.264;6.154;2022-12-18T14:07:55;16.95;;;9.23;;
47021;SDS011;32779;52.264;6.154;2022-12-18T14:10:26;20.50;;;10.70;;
47021;SDS011;32779;52.264;6.154;2022-12-18T14:12:53;18.15;;;10.10;;
47021;SDS011;32779;52.264;6.154;2022-12-18T14:17:49;17.50;;;9.52;;
47021;SDS011;32779;52.264;6.154;2022-12-18T14:20:15;16.90;;;9.30;;
47021;SDS011;32779;52.264;6.154;2022-12-18T14:22:46;14.38;;;8.50;;
47021;SDS011;32779;52.264;6.154;2022-12-18T14:25:20;19.33;;;9.07;;
47021;SDS011;32779;52.264;6.154;2022-12-18T14:30:43;15.02;;;8.48;;
47021;SDS011;32779;52.264;6.154;2022-12-18T14:35:57;16.10;;;8.63;;
47021;SDS011;32779;52.264;6.154;2022-12-18T14:38:32;16.05;;;8.88;;
47021;SDS011;32779;52.264;6.154;2022-12-18T14:43:41;24.20;;;9.55;;
47021;SDS011;32779;52.264;6.154;2022-12-18T14:48:52;23.90;;;10.88;;
47021;SDS011;32779;52.264;6.154;2022-12-18T14:51:23;17.80;;;10.30;;
47021;SDS011;32779;52.264;6.154;2022-12-18T14:54:04;24.75;;;11.55;;
47021;SDS011;32779;52.264;6.154;2022-12-18T14:56:48;27.50;;;12.32;;
47021;SDS011;32779;52.264;6.154;2022-12-18T15:04:41;19.15;;;10.27;;
47021;SDS011;32779;52.264;6.154;2022-12-18T15:07:21;20.75;;;10.45;;
47021;SDS011;32779;52.264;6.154;2022-12-18T15:15:01;18.83;;;10.10;;
47021;SDS011;32779;52.264;6.154;2022-12-18T15:17:28;18.27;;;10.25;;
47021;SDS011;32779;52.264;6.154;2022-12-18T15:20:02;23.63;;;10.20;;
47021;SDS011;32779;52.264;6.154;2022-12-18T15:22:35;19.08;;;10.02;;
47021;SDS011;32779;52.264;6.154;2022-12-18T15:25:03;18.95;;;9.63;;
47021;SDS011;32779;52.264;6.154;2022-12-18T15:27:52;16.13;;;9.45;;
47021;SDS011;32779;52.264;6.154;2022-12-18T15:30:19;24.25;;;13.45;;
47021;SDS011;32779;52.264;6.154;2022-12-18T15:32:49;19.95;;;10.57;;
47021;SDS011;32779;52.264;6.154;2022-12-18T15:37:43;18.58;;;9.77;;
47021;SDS011;32779;52.264;6.154;2022-12-18T15:42:43;25.73;;;12.65;;
47021;SDS011;32779;52.264;6.154;2022-12-18T15:45:28;20.58;;;11.05;;
47021;SDS011;32779;52.264;6.154;2022-12-18T15:47:54;19.83;;;10.30;;
47021;SDS011;32779;52.264;6.154;2022-12-18T15:50:23;19.02;;;10.70;;
47021;SDS011;32779;52.264;6.154;2022-12-18T15:52:49;22.05;;;10.13;;
47021;SDS011;32779;52.264;6.154;2022-12-18T15:55:18;18.15;;;9.57;;
47021;SDS011;32779;52.264;6.154;2022-12-18T15:58:05;19.33;;;10.68;;
47021;SDS011;32779;52.264;6.154;2022-12-18T16:00:33;24.45;;;12.68;;
47021;SDS011;32779;52.264;6.154;2022-12-18T16:03:00;18.80;;;10.70;;
47021;SDS011;32779;52.264;6.154;2022-12-18T16:05:26;20.17;;;10.32;;
47021;SDS011;32779;52.264;6.154;2022-12-18T16:10:18;26.10;;;14.27;;
47021;SDS011;32779;52.264;6.154;2022-12-18T16:15:12;20.30;;;10.18;;
47021;SDS011;32779;52.264;6.154;2022-12-18T16:17:39;21.23;;;11.35;;
47021;SDS011;32779;52.264;6.154;2022-12-18T16:20:08;20.17;;;10.68;;
47021;SDS011;32779;52.264;6.154;2022-12-18T16:22:41;24.15;;;10.65;;
47021;SDS011;32779;52.264;6.154;2022-12-18T16:25:15;15.70;;;8.88;;
47021;SDS011;32779;52.264;6.154;2022-12-18T16:27:46;21.08;;;9.75;;
47021;SDS011;32779;52.264;6.154;2022-12-18T16:32:39;14.45;;;9.32;;
47021;SDS011;32779;52.264;6.154;2022-12-18T16:35:04;17.50;;;9.98;;
47021;SDS011;32779;52.264;6.154;2022-12-18T16:37:31;23.83;;;10.85;;
47021;SDS011;32779;52.264;6.154;2022-12-18T16:39:57;16.33;;;9.88;;
47021;SDS011;32779;52.264;6.154;2022-12-18T16:42:23;24.58;;;11.40;;
47021;SDS011;32779;52.264;6.154;2022-12-18T16:44:52;16.10;;;9.48;;
47021;SDS011;32779;52.264;6.154;2022-12-18T16:47:17;18.02;;;10.25;;
47021;SDS011;32779;52.264;6.154;2022-12-18T16:49:44;18.17;;;10.98;;
47021;SDS011;32779;52.264;6.154;2022-12-18T16:52:10;20.88;;;10.07;;
47021;SDS011;32779;52.264;6.154;2022-12-18T16:54:36;17.15;;;9.90;;
47021;SDS011;32779;52.264;6.154;2022-12-18T16:57:02;17.00;;;10.65;;
47021;SDS011;32779;52.264;6.154;2022-12-18T16:59:29;28.80;;;12.93;;
47021;SDS011;32779;52.264;6.154;2022-12-18T17:01:55;18.90;;;11.00;;
47021;SDS011;32779;52.264;6.154;2022-12-18T17:04:21;16.85;;;10.63;;
47021;SDS011;32779;52.264;6.154;2022-12-18T17:06:50;21.25;;;11.40;;
47021;SDS011;32779;52.264;6.154;2022-12-18T17:09:18;19.60;;;11.50;;
47021;SDS011;32779;52.264;6.154;2022-12-18T17:11:47;32.63;;;14.88;;